sensor_id;sensor_type;location;lat;lon;timestamp;P1;durP1;ratioP1;P2;durP2;ratioP2
7398;SDS011;3740;50.700;7.184;2024-03-23T00:51:45;16.13;;;12.67;;
7398;SDS011;3740;50.700;7.184;2024-03-23T00:54:31;17.27;;;14.23;;
7398;SDS011;3740;50.700;7.184;2024-03-23T00:57:17;17.40;;;13.77;;
7398;SDS011;3740;50.700;7.184;2024-03-23T01:00:03;19.77;;;13.87;;
7398;SDS011;3740;50.700;7.184;2024-03-23T01:02:51;19.67;;;14.50;;
7398;SDS011;3740;50.700;7.184;2024-03-23T01:05:37;17.97;;;14.37;;
7398;SDS011;3740;50.700;7.184;2024-03-23T01:08:23;21.97;;;15.83;;
7398;SDS011;3740;50.700;7.184;2024-03-23T01:11:08;20.40;;;15.57;;
7398;SDS011;3740;50.700;7.184;2024-03-23T01:13:54;20.70;;;15.90;;
7398;SDS011;3740;50.700;7.184;2024-03-23T01:16:41;20.13;;;15.90;;
7398;SDS011;3740;50.700;7.184;2024-03-23T01:19:27;24.17;;;17.37;;
7398;SDS011;3740;50.700;7.184;2024-03-23T01:22:13;22.43;;;16.73;;
7398;SDS011;3740;50.700;7.184;2024-03-23T01:24:59;23.67;;;16.93;;
7398;SDS011;3740;50.700;7.184;2024-03-23T01:27:44;21.73;;;16.93;;
7398;SDS011;3740;50.700;7.184;2024-03-23T01:30:30;25.33;;;17.70;;
7398;SDS011;3740;50.700;7.184;2024-03-23T01:33:16;23.83;;;19.30;;
7398;SDS011;3740;50.700;7.184;2024-03-23T01:36:02;21.47;;;18.00;;
7398;SDS011;3740;50.700;7.184;2024-03-23T01:38:48;24.80;;;18.10;;
7398;SDS011;3740;50.700;7.184;2024-03-23T01:41:34;21.87;;;15.93;;
7398;SDS011;3740;50.700;7.184;2024-03-23T01:44:21;22.07;;;16.23;;
7398;SDS011;3740;50.700;7.184;2024-03-23T01:47:07;20.87;;;15.40;;
7398;SDS011;3740;50.700;7.184;2024-03-23T01:49:53;21.83;;;15.30;;
7398;SDS011;3740;50.700;7.184;2024-03-23T01:52:40;19.43;;;14.70;;
7398;SDS011;3740;50.700;7.184;2024-03-23T01:55:26;17.33;;;13.33;;
7398;SDS011;3740;50.700;7.184;2024-03-23T01:58:12;18.93;;;13.83;;
7398;SDS011;3740;50.700;7.184;2024-03-23T02:00:58;20.17;;;12.73;;
7398;SDS011;3740;50.700;7.184;2024-03-23T02:03:44;16.57;;;13.97;;
7398;SDS011;3740;50.700;7.184;2024-03-23T02:06:30;14.93;;;12.40;;
7398;SDS011;3740;50.700;7.184;2024-03-23T02:09:16;16.93;;;12.67;;
7398;SDS011;3740;50.700;7.184;2024-03-23T02:12:02;16.20;;;12.53;;
7398;SDS011;3740;50.700;7.184;2024-03-23T02:14:48;17.93;;;12.10;;
7398;SDS011;3740;50.700;7.184;2024-03-23T02:17:34;16.13;;;12.37;;
7398;SDS011;3740;50.700;7.184;2024-03-23T02:20:21;16.40;;;11.00;;
7398;SDS011;3740;50.700;7.184;2024-03-23T02:23:13;14.67;;;11.10;;
7398;SDS011;3740;50.700;7.184;2024-03-23T02:26:06;15.63;;;9.73;;
7398;SDS011;3740;50.700;7.184;2024-03-23T02:28:52;13.70;;;9.40;;
7398;SDS011;3740;50.700;7.184;2024-03-23T02:31:37;9.73;;;7.20;;
7398;SDS011;3740;50.700;7.184;2024-03-23T02:34:23;8.13;;;5.73;;
7398;SDS011;3740;50.700;7.184;2024-03-23T02:37:10;5.77;;;5.17;;
7398;SDS011;3740;50.700;7.184;2024-03-23T02:39:56;5.83;;;5.17;;
7398;SDS011;3740;50.700;7.184;2024-03-23T02:42:42;7.53;;;5.10;;
7398;SDS011;3740;50.700;7.184;2024-03-23T02:45:28;6.17;;;5.00;;
7398;SDS011;3740;50.700;7.184;2024-03-23T02:48:14;6.40;;;5.73;;
7398;SDS011;3740;50.700;7.184;2024-03-23T02:51:00;9.30;;;5.70;;
7398;SDS011;3740;50.700;7.184;2024-03-23T02:53:46;7.80;;;6.13;;
7398;SDS011;3740;50.700;7.184;2024-03-23T02:56:32;8.37;;;6.73;;
7398;SDS011;3740;50.700;7.184;2024-03-23T02:59:18;7.67;;;6.13;;
7398;SDS011;3740;50.700;7.184;2024-03-23T03:02:04;8.70;;;6.57;;
7398;SDS011;3740;50.700;7.184;2024-03-23T03:04:50;9.47;;;6.30;;
7398;SDS011;3740;50.700;7.184;2024-03-23T03:07:36;8.73;;;6.10;;
7398;SDS011;3740;50.700;7.184;2024-03-23T03:10:24;6.93;;;6.00;;
7398;SDS011;3740;50.700;7.184;2024-03-23T03:13:10;6.30;;;5.50;;
7398;SDS011;3740;50.700;7.184;2024-03-23T03:15:56;6.80;;;5.40;;
7398;SDS011;3740;50.700;7.184;2024-03-23T03:18:42;8.27;;;5.50;;
7398;SDS011;3740;50.700;7.184;2024-03-23T03:21:28;9.00;;;5.60;;
7398;SDS011;3740;50.700;7.184;2024-03-23T03:24:15;8.23;;;5.57;;
7398;SDS011;3740;50.700;7.184;2024-03-23T03:27:01;8.57;;;5.80;;
7398;SDS011;3740;50.700;7.184;2024-03-23T03:29:48;7.77;;;5.33;;
7398;SDS011;3740;50.700;7.184;2024-03-23T03:32:34;7.67;;;5.00;;
7398;SDS011;3740;50.700;7.184;2024-03-23T03:35:20;7.37;;;4.57;;
7398;SDS011;3740;50.700;7.184;2024-03-23T03:38:06;7.83;;;4.77;;
7398;SDS011;3740;50.700;7.184;2024-03-23T03:40:52;9.27;;;4.47;;
7398;SDS011;3740;50.700;7.184;2024-03-23T03:43:38;7.90;;;4.70;;
7398;SDS011;3740;50.700;7.184;2024-03-23T03:46:24;6.80;;;4.13;;
7398;SDS011;3740;50.700;7.184;2024-03-23T03:49:10;8.53;;;4.90;;
7398;SDS011;3740;50.700;7.184;2024-03-23T03:51:56;9.43;;;4.63;;
7398;SDS011;3740;50.700;7.184;2024-03-23T03:54:42;8.60;;;5.07;;
7398;SDS011;3740;50.700;7.184;2024-03-23T03:57:28;6.57;;;4.57;;
7398;SDS011;3740;50.700;7.184;2024-03-23T04:00:14;10.50;;;5.00;;
7398;SDS011;3740;50.700;7.184;2024-03-23T04:03:01;6.80;;;4.30;;
7398;SDS011;3740;50.700;7.184;2024-03-23T04:05:54;10.73;;;5.13;;
7398;SDS011;3740;50.700;7.184;2024-03-23T04:08:39;7.90;;;4.43;;
7398;SDS011;3740;50.700;7.184;2024-03-23T04:11:25;9.13;;;5.13;;
7398;SDS011;3740;50.700;7.184;2024-03-23T04:14:11;9.03;;;5.17;;
7398;SDS011;3740;50.700;7.184;2024-03-23T04:16:57;11.00;;;4.97;;
7398;SDS011;3740;50.700;7.184;2024-03-23T04:19:43;7.73;;;5.10;;
7398;SDS011;3740;50.700;7.184;2024-03-23T04:22:29;10.60;;;4.90;;
7398;SDS011;3740;50.700;7.184;2024-03-23T04:25:15;10.17;;;5.03;;
7398;SDS011;3740;50.700;7.184;2024-03-23T04:28:01;10.47;;;4.27;;
7398;SDS011;3740;50.700;7.184;2024-03-23T04:30:48;12.63;;;4.70;;
7398;SDS011;3740;50.700;7.184;2024-03-23T04:33:34;11.13;;;4.33;;
7398;SDS011;3740;50.700;7.184;2024-03-23T04:36:20;10.87;;;4.27;;
7398;SDS011;3740;50.700;7.184;2024-03-23T04:39:06;11.40;;;4.33;;
7398;SDS011;3740;50.700;7.184;2024-03-23T04:41:54;9.60;;;3.97;;
7398;SDS011;3740;50.700;7.184;2024-03-23T04:44:39;11.33;;;4.10;;
7398;SDS011;3740;50.700;7.184;2024-03-23T04:47:25;8.27;;;4.33;;
7398;SDS011;3740;50.700;7.184;2024-03-23T04:50:12;11.67;;;4.57;;
7398;SDS011;3740;50.700;7.184;2024-03-23T04:52:57;10.70;;;4.40;;
7398;SDS011;3740;50.700;7.184;2024-03-23T04:55:43;10.40;;;4.40;;
7398;SDS011;3740;50.700;7.184;2024-03-23T04:58:29;7.00;;;4.30;;
7398;SDS011;3740;50.700;7.184;2024-03-23T05:01:15;8.50;;;4.50;;
7398;SDS011;3740;50.700;7.184;2024-03-23T05:04:01;8.67;;;4.00;;
7398;SDS011;3740;50.700;7.184;2024-03-23T05:06:47;8.73;;;3.90;;
7398;SDS011;3740;50.700;7.184;2024-03-23T05:09:33;9.33;;;3.77;;
7398;SDS011;3740;50.700;7.184;2024-03-23T05:12:19;8.13;;;3.57;;
7398;SDS011;3740;50.700;7.184;2024-03-23T05:15:05;6.60;;;3.60;;
7398;SDS011;3740;50.700;7.184;2024-03-23T05:17:52;8.40;;;3.80;;
7398;SDS011;3740;50.700;7.184;2024-03-23T05:20:39;10.67;;;3.83;;
7398;SDS011;3740;50.700;7.184;2024-03-23T05:23:25;8.80;;;3.60;;
7398;SDS011;3740;50.700;7.184;2024-03-23T05:26:13;9.10;;;3.50;;
7398;SDS011;3740;50.700;7.184;2024-03-23T05:28:59;13.23;;;4.13;;
7398;SDS011;3740;50.700;7.184;2024-03-23T05:31:49;9.83;;;3.93;;
7398;SDS011;3740;50.700;7.184;2024-03-23T05:34:37;10.77;;;3.93;;
7398;SDS011;3740;50.700;7.184;2024-03-23T05:37:23;9.70;;;4.00;;
7398;SDS011;3740;50.700;7.184;2024-03-23T05:40:09;8.27;;;3.77;;
7398;SDS011;3740;50.700;7.184;2024-03-23T05:42:55;9.93;;;4.30;;
7398;SDS011;3740;50.700;7.184;2024-03-23T05:45:41;12.03;;;3.97;;
7398;SDS011;3740;50.700;7.184;2024-03-23T05:48:27;9.00;;;3.50;;
7398;SDS011;3740;50.700;7.184;2024-03-23T05:51:13;9.93;;;4.30;;
7398;SDS011;3740;50.700;7.184;2024-03-23T05:53:59;10.03;;;3.77;;
7398;SDS011;3740;50.700;7.184;2024-03-23T05:56:45;10.23;;;3.73;;
7398;SDS011;3740;50.700;7.184;2024-03-23T05:59:31;7.47;;;3.30;;
7398;SDS011;3740;50.700;7.184;2024-03-23T06:02:16;8.93;;;3.77;;
7398;SDS011;3740;50.700;7.184;2024-03-23T06:05:02;7.37;;;3.30;;
7398;SDS011;3740;50.700;7.184;2024-03-23T06:07:48;7.33;;;3.40;;
7398;SDS011;3740;50.700;7.184;2024-03-23T06:10:35;7.13;;;3.60;;
7398;SDS011;3740;50.700;7.184;2024-03-23T06:13:21;8.03;;;3.63;;
7398;SDS011;3740;50.700;7.184;2024-03-23T06:16:10;11.47;;;3.77;;
7398;SDS011;3740;50.700;7.184;2024-03-23T06:18:55;10.17;;;4.00;;
7398;SDS011;3740;50.700;7.184;2024-03-23T06:21:45;9.13;;;3.90;;
7398;SDS011;3740;50.700;7.184;2024-03-23T06:24:30;10.20;;;3.87;;
7398;SDS011;3740;50.700;7.184;2024-03-23T06:27:16;8.83;;;3.43;;
7398;SDS011;3740;50.700;7.184;2024-03-23T06:30:02;8.50;;;3.50;;
7398;SDS011;3740;50.700;7.184;2024-03-23T06:32:48;8.83;;;3.90;;
7398;SDS011;3740;50.700;7.184;2024-03-23T06:35:34;10.77;;;4.20;;
7398;SDS011;3740;50.700;7.184;2024-03-23T06:38:20;10.17;;;3.73;;
7398;SDS011;3740;50.700;7.184;2024-03-23T06:41:06;10.50;;;3.97;;
7398;SDS011;3740;50.700;7.184;2024-03-23T06:43:52;9.30;;;3.70;;
7398;SDS011;3740;50.700;7.184;2024-03-23T06:46:38;8.90;;;4.33;;
7398;SDS011;3740;50.700;7.184;2024-03-23T06:49:23;8.23;;;3.70;;
7398;SDS011;3740;50.700;7.184;2024-03-23T06:52:09;8.50;;;3.47;;
7398;SDS011;3740;50.700;7.184;2024-03-23T06:54:55;9.33;;;3.80;;
7398;SDS011;3740;50.700;7.184;2024-03-23T06:57:42;8.70;;;3.80;;
7398;SDS011;3740;50.700;7.184;2024-03-23T07:00:27;8.67;;;3.67;;
7398;SDS011;3740;50.700;7.184;2024-03-23T07:03:14;7.07;;;3.80;;
7398;SDS011;3740;50.700;7.184;2024-03-23T07:06:00;8.40;;;4.20;;
7398;SDS011;3740;50.700;7.184;2024-03-23T07:08:46;12.17;;;3.93;;
7398;SDS011;3740;50.700;7.184;2024-03-23T07:11:32;9.33;;;3.87;;
7398;SDS011;3740;50.700;7.184;2024-03-23T07:14:18;10.80;;;4.20;;
7398;SDS011;3740;50.700;7.184;2024-03-23T07:17:03;10.43;;;4.17;;
7398;SDS011;3740;50.700;7.184;2024-03-23T07:19:49;10.27;;;4.47;;
7398;SDS011;3740;50.700;7.184;2024-03-23T07:22:35;8.57;;;4.07;;
7398;SDS011;3740;50.700;7.184;2024-03-23T07:25:21;9.73;;;4.87;;
7398;SDS011;3740;50.700;7.184;2024-03-23T07:28:08;11.80;;;4.90;;
7398;SDS011;3740;50.700;7.184;2024-03-23T07:31:02;8.60;;;4.30;;
7398;SDS011;3740;50.700;7.184;2024-03-23T07:33:55;10.97;;;5.30;;
7398;SDS011;3740;50.700;7.184;2024-03-23T07:36:41;8.53;;;5.20;;
7398;SDS011;3740;50.700;7.184;2024-03-23T07:39:27;12.43;;;5.60;;
7398;SDS011;3740;50.700;7.184;2024-03-23T07:42:13;10.53;;;5.60;;
7398;SDS011;3740;50.700;7.184;2024-03-23T07:45:00;9.50;;;5.20;;
7398;SDS011;3740;50.700;7.184;2024-03-23T07:47:45;13.30;;;6.23;;
7398;SDS011;3740;50.700;7.184;2024-03-23T07:50:31;10.47;;;5.77;;
7398;SDS011;3740;50.700;7.184;2024-03-23T07:53:17;11.93;;;5.93;;
7398;SDS011;3740;50.700;7.184;2024-03-23T07:56:06;14.40;;;6.40;;
7398;SDS011;3740;50.700;7.184;2024-03-23T07:58:53;11.00;;;6.10;;
7398;SDS011;3740;50.700;7.184;2024-03-23T08:01:39;14.63;;;6.43;;
7398;SDS011;3740;50.700;7.184;2024-03-23T08:04:25;12.23;;;6.43;;
7398;SDS011;3740;50.700;7.184;2024-03-23T08:07:12;11.10;;;6.47;;
7398;SDS011;3740;50.700;7.184;2024-03-23T08:09:58;14.40;;;6.20;;
7398;SDS011;3740;50.700;7.184;2024-03-23T08:12:45;9.07;;;6.70;;
7398;SDS011;3740;50.700;7.184;2024-03-23T08:15:31;11.60;;;6.40;;
7398;SDS011;3740;50.700;7.184;2024-03-23T08:18:18;14.03;;;7.10;;
7398;SDS011;3740;50.700;7.184;2024-03-23T08:21:04;13.10;;;5.90;;
7398;SDS011;3740;50.700;7.184;2024-03-23T08:23:51;9.33;;;3.53;;
7398;SDS011;3740;50.700;7.184;2024-03-23T08:26:37;5.37;;;3.10;;
7398;SDS011;3740;50.700;7.184;2024-03-23T08:29:22;7.63;;;3.23;;
7398;SDS011;3740;50.700;7.184;2024-03-23T08:32:08;5.53;;;2.63;;
7398;SDS011;3740;50.700;7.184;2024-03-23T08:34:55;5.63;;;2.97;;
7398;SDS011;3740;50.700;7.184;2024-03-23T08:37:40;7.80;;;2.97;;
7398;SDS011;3740;50.700;7.184;2024-03-23T08:40:26;5.90;;;2.60;;
7398;SDS011;3740;50.700;7.184;2024-03-23T08:43:12;6.93;;;3.00;;
7398;SDS011;3740;50.700;7.184;2024-03-23T08:48:53;7.97;;;3.27;;
7398;SDS011;3740;50.700;7.184;2024-03-23T08:51:39;5.83;;;2.90;;
7398;SDS011;3740;50.700;7.184;2024-03-23T08:54:24;4.57;;;2.73;;
7398;SDS011;3740;50.700;7.184;2024-03-23T08:57:12;5.77;;;2.67;;
7398;SDS011;3740;50.700;7.184;2024-03-23T08:59:58;7.27;;;3.80;;
7398;SDS011;3740;50.700;7.184;2024-03-23T09:02:47;7.60;;;4.00;;
7398;SDS011;3740;50.700;7.184;2024-03-23T09:05:33;8.13;;;4.63;;
7398;SDS011;3740;50.700;7.184;2024-03-23T09:08:24;11.30;;;5.93;;
7398;SDS011;3740;50.700;7.184;2024-03-23T09:11:11;11.57;;;6.13;;
7398;SDS011;3740;50.700;7.184;2024-03-23T09:13:58;11.23;;;6.67;;
7398;SDS011;3740;50.700;7.184;2024-03-23T09:16:44;11.80;;;7.97;;
7398;SDS011;3740;50.700;7.184;2024-03-23T09:19:30;11.80;;;7.40;;
7398;SDS011;3740;50.700;7.184;2024-03-23T09:22:15;11.73;;;8.23;;
7398;SDS011;3740;50.700;7.184;2024-03-23T09:25:01;13.30;;;7.87;;
7398;SDS011;3740;50.700;7.184;2024-03-23T09:27:47;13.77;;;8.37;;
7398;SDS011;3740;50.700;7.184;2024-03-23T09:30:33;15.20;;;8.50;;
7398;SDS011;3740;50.700;7.184;2024-03-23T09:33:20;12.40;;;7.07;;
7398;SDS011;3740;50.700;7.184;2024-03-23T09:36:06;9.43;;;7.10;;
7398;SDS011;3740;50.700;7.184;2024-03-23T09:38:52;11.80;;;6.47;;
7398;SDS011;3740;50.700;7.184;2024-03-23T09:41:38;11.70;;;6.47;;
7398;SDS011;3740;50.700;7.184;2024-03-23T09:44:24;13.00;;;5.50;;
7398;SDS011;3740;50.700;7.184;2024-03-23T09:47:11;9.50;;;4.83;;
7398;SDS011;3740;50.700;7.184;2024-03-23T09:49:57;8.93;;;4.43;;
7398;SDS011;3740;50.700;7.184;2024-03-23T09:52:44;7.83;;;3.73;;
7398;SDS011;3740;50.700;7.184;2024-03-23T09:55:31;8.27;;;3.93;;
7398;SDS011;3740;50.700;7.184;2024-03-23T09:58:17;12.33;;;4.77;;
7398;SDS011;3740;50.700;7.184;2024-03-23T10:01:03;8.03;;;3.87;;
7398;SDS011;3740;50.700;7.184;2024-03-23T10:03:50;7.43;;;3.90;;
7398;SDS011;3740;50.700;7.184;2024-03-23T10:06:36;6.67;;;3.73;;
7398;SDS011;3740;50.700;7.184;2024-03-23T10:09:22;7.10;;;3.40;;
7398;SDS011;3740;50.700;7.184;2024-03-23T10:12:11;7.50;;;3.77;;
7398;SDS011;3740;50.700;7.184;2024-03-23T10:15:01;6.87;;;3.50;;
7398;SDS011;3740;50.700;7.184;2024-03-23T10:17:48;7.87;;;3.17;;
7398;SDS011;3740;50.700;7.184;2024-03-23T10:20:34;6.77;;;2.97;;
7398;SDS011;3740;50.700;7.184;2024-03-23T10:23:20;6.23;;;2.97;;
7398;SDS011;3740;50.700;7.184;2024-03-23T10:26:15;5.70;;;2.93;;
7398;SDS011;3740;50.700;7.184;2024-03-23T10:29:03;5.20;;;3.00;;
7398;SDS011;3740;50.700;7.184;2024-03-23T10:31:53;6.60;;;3.65;;
7398;SDS011;3740;50.700;7.184;2024-03-23T10:34:40;5.97;;;3.27;;
7398;SDS011;3740;50.700;7.184;2024-03-23T10:37:26;7.50;;;3.37;;
7398;SDS011;3740;50.700;7.184;2024-03-23T10:40:12;7.27;;;3.37;;
7398;SDS011;3740;50.700;7.184;2024-03-23T10:42:58;3.00;;;2.33;;
7398;SDS011;3740;50.700;7.184;2024-03-23T10:45:45;2.90;;;1.90;;
7398;SDS011;3740;50.700;7.184;2024-03-23T10:48:31;3.00;;;1.40;;
7398;SDS011;3740;50.700;7.184;2024-03-23T10:51:18;1.13;;;0.60;;
7398;SDS011;3740;50.700;7.184;2024-03-23T10:54:04;1.60;;;1.03;;
7398;SDS011;3740;50.700;7.184;2024-03-23T10:57:00;0.93;;;0.80;;
7398;SDS011;3740;50.700;7.184;2024-03-23T10:59:59;2.50;;;0.83;;
7398;SDS011;3740;50.700;7.184;2024-03-23T11:02:48;1.27;;;0.87;;
7398;SDS011;3740;50.700;7.184;2024-03-23T11:05:34;1.10;;;0.63;;
7398;SDS011;3740;50.700;7.184;2024-03-23T11:08:33;2.23;;;1.10;;
7398;SDS011;3740;50.700;7.184;2024-03-23T11:11:23;0.53;;;0.50;;
7398;SDS011;3740;50.700;7.184;2024-03-23T11:14:12;1.10;;;0.80;;
7398;SDS011;3740;50.700;7.184;2024-03-23T11:17:09;2.13;;;0.70;;
7398;SDS011;3740;50.700;7.184;2024-03-23T11:19:56;1.00;;;0.63;;
7398;SDS011;3740;50.700;7.184;2024-03-23T11:25:30;1.15;;;0.80;;
7398;SDS011;3740;50.700;7.184;2024-03-23T11:28:16;1.45;;;1.02;;
7398;SDS011;3740;50.700;7.184;2024-03-23T11:31:08;2.53;;;1.42;;
7398;SDS011;3740;50.700;7.184;2024-03-23T11:34:02;2.50;;;1.60;;
7398;SDS011;3740;50.700;7.184;2024-03-23T11:36:53;3.58;;;2.00;;
7398;SDS011;3740;50.700;7.184;2024-03-23T11:39:49;2.67;;;2.20;;
7398;SDS011;3740;50.700;7.184;2024-03-23T11:42:35;2.10;;;1.77;;
7398;SDS011;3740;50.700;7.184;2024-03-23T11:45:21;1.30;;;1.13;;
7398;SDS011;3740;50.700;7.184;2024-03-23T11:48:08;2.63;;;1.70;;
7398;SDS011;3740;50.700;7.184;2024-03-23T11:51:04;4.47;;;1.63;;
7398;SDS011;3740;50.700;7.184;2024-03-23T11:53:51;3.75;;;1.60;;
7398;SDS011;3740;50.700;7.184;2024-03-23T11:56:37;2.70;;;1.77;;
7398;SDS011;3740;50.700;7.184;2024-03-23T11:59:35;3.95;;;2.40;;
7398;SDS011;3740;50.700;7.184;2024-03-23T12:02:23;3.15;;;2.15;;
7398;SDS011;3740;50.700;7.184;2024-03-23T12:05:15;3.28;;;2.45;;
7398;SDS011;3740;50.700;7.184;2024-03-23T12:11:16;3.33;;;2.13;;
7398;SDS011;3740;50.700;7.184;2024-03-23T12:14:02;2.38;;;2.10;;
7398;SDS011;3740;50.700;7.184;2024-03-23T12:16:48;2.53;;;2.13;;
7398;SDS011;3740;50.700;7.184;2024-03-23T12:19:34;3.22;;;2.10;;
7398;SDS011;3740;50.700;7.184;2024-03-23T12:22:23;4.15;;;2.47;;
7398;SDS011;3740;50.700;7.184;2024-03-23T12:25:09;3.28;;;2.28;;
7398;SDS011;3740;50.700;7.184;2024-03-23T12:27:57;3.60;;;2.67;;
7398;SDS011;3740;50.700;7.184;2024-03-23T12:30:46;3.83;;;2.42;;
7398;SDS011;3740;50.700;7.184;2024-03-23T12:33:32;3.22;;;2.80;;
7398;SDS011;3740;50.700;7.184;2024-03-23T12:36:18;3.30;;;2.50;;
7398;SDS011;3740;50.700;7.184;2024-03-23T12:39:04;3.60;;;2.72;;
7398;SDS011;3740;50.700;7.184;2024-03-23T12:41:50;4.32;;;2.53;;
7398;SDS011;3740;50.700;7.184;2024-03-23T12:44:37;4.40;;;2.45;;
7398;SDS011;3740;50.700;7.184;2024-03-23T12:47:23;4.85;;;2.90;;
7398;SDS011;3740;50.700;7.184;2024-03-23T12:50:09;4.30;;;2.40;;
7398;SDS011;3740;50.700;7.184;2024-03-23T12:52:55;3.63;;;2.47;;
7398;SDS011;3740;50.700;7.184;2024-03-23T12:55:41;3.88;;;2.55;;
7398;SDS011;3740;50.700;7.184;2024-03-23T12:58:27;5.05;;;2.83;;
7398;SDS011;3740;50.700;7.184;2024-03-23T13:01:12;3.20;;;1.90;;
7398;SDS011;3740;50.700;7.184;2024-03-23T13:03:58;3.25;;;1.60;;
7398;SDS011;3740;50.700;7.184;2024-03-23T13:06:46;3.10;;;1.85;;
7398;SDS011;3740;50.700;7.184;2024-03-23T13:09:32;2.37;;;1.33;;
7398;SDS011;3740;50.700;7.184;2024-03-23T13:12:18;1.83;;;1.57;;
7398;SDS011;3740;50.700;7.184;2024-03-23T13:15:07;2.27;;;1.70;;
7398;SDS011;3740;50.700;7.184;2024-03-23T13:17:53;5.27;;;2.70;;
7398;SDS011;3740;50.700;7.184;2024-03-23T13:20:39;4.07;;;2.50;;
7398;SDS011;3740;50.700;7.184;2024-03-23T13:23:25;3.37;;;2.27;;
7398;SDS011;3740;50.700;7.184;2024-03-23T13:26:11;2.67;;;1.90;;
7398;SDS011;3740;50.700;7.184;2024-03-23T13:28:57;5.60;;;3.87;;
7398;SDS011;3740;50.700;7.184;2024-03-23T13:31:43;4.13;;;2.43;;
7398;SDS011;3740;50.700;7.184;2024-03-23T13:34:29;3.80;;;2.50;;
7398;SDS011;3740;50.700;7.184;2024-03-23T13:37:15;4.57;;;2.30;;
7398;SDS011;3740;50.700;7.184;2024-03-23T13:40:01;2.50;;;1.80;;
7398;SDS011;3740;50.700;7.184;2024-03-23T13:42:46;3.97;;;1.80;;
7398;SDS011;3740;50.700;7.184;2024-03-23T13:45:32;2.97;;;1.50;;
7398;SDS011;3740;50.700;7.184;2024-03-23T13:48:19;2.17;;;1.33;;
7398;SDS011;3740;50.700;7.184;2024-03-23T13:51:05;1.50;;;1.23;;
7398;SDS011;3740;50.700;7.184;2024-03-23T13:53:51;2.57;;;1.53;;
7398;SDS011;3740;50.700;7.184;2024-03-23T13:56:38;2.73;;;1.77;;
7398;SDS011;3740;50.700;7.184;2024-03-23T13:59:24;2.78;;;1.75;;
7398;SDS011;3740;50.700;7.184;2024-03-23T14:02:10;2.63;;;1.60;;
7398;SDS011;3740;50.700;7.184;2024-03-23T14:04:57;1.93;;;1.60;;
7398;SDS011;3740;50.700;7.184;2024-03-23T14:07:42;2.33;;;2.00;;
7398;SDS011;3740;50.700;7.184;2024-03-23T14:10:28;5.30;;;1.83;;
7398;SDS011;3740;50.700;7.184;2024-03-23T14:13:14;2.93;;;1.70;;
7398;SDS011;3740;50.700;7.184;2024-03-23T14:16:00;2.30;;;1.53;;
7398;SDS011;3740;50.700;7.184;2024-03-23T14:18:47;3.90;;;2.10;;
7398;SDS011;3740;50.700;7.184;2024-03-23T14:21:33;4.07;;;2.20;;
7398;SDS011;3740;50.700;7.184;2024-03-23T14:24:20;4.13;;;2.27;;
7398;SDS011;3740;50.700;7.184;2024-03-23T14:27:05;4.80;;;2.80;;
7398;SDS011;3740;50.700;7.184;2024-03-23T14:29:52;4.60;;;2.63;;
7398;SDS011;3740;50.700;7.184;2024-03-23T14:32:38;4.47;;;2.70;;
7398;SDS011;3740;50.700;7.184;2024-03-23T14:35:24;5.70;;;3.17;;
7398;SDS011;3740;50.700;7.184;2024-03-23T14:38:12;3.90;;;2.93;;
7398;SDS011;3740;50.700;7.184;2024-03-23T14:41:01;4.47;;;2.90;;
7398;SDS011;3740;50.700;7.184;2024-03-23T14:43:48;4.30;;;3.10;;
7398;SDS011;3740;50.700;7.184;2024-03-23T14:46:36;5.23;;;2.60;;
7398;SDS011;3740;50.700;7.184;2024-03-23T14:49:22;4.67;;;2.47;;
7398;SDS011;3740;50.700;7.184;2024-03-23T14:52:08;3.87;;;2.20;;
7398;SDS011;3740;50.700;7.184;2024-03-23T14:54:54;5.53;;;2.10;;
7398;SDS011;3740;50.700;7.184;2024-03-23T14:57:42;3.57;;;2.00;;
7398;SDS011;3740;50.700;7.184;2024-03-23T15:00:27;4.93;;;2.10;;
7398;SDS011;3740;50.700;7.184;2024-03-23T15:03:13;3.20;;;1.93;;
7398;SDS011;3740;50.700;7.184;2024-03-23T15:05:59;1.63;;;1.53;;
7398;SDS011;3740;50.700;7.184;2024-03-23T15:08:46;3.23;;;2.10;;
7398;SDS011;3740;50.700;7.184;2024-03-23T15:11:32;3.90;;;2.10;;
7398;SDS011;3740;50.700;7.184;2024-03-23T15:14:18;2.30;;;1.47;;
7398;SDS011;3740;50.700;7.184;2024-03-23T15:17:05;2.33;;;1.60;;
7398;SDS011;3740;50.700;7.184;2024-03-23T15:19:52;3.03;;;2.13;;
7398;SDS011;3740;50.700;7.184;2024-03-23T15:22:39;2.57;;;1.60;;
7398;SDS011;3740;50.700;7.184;2024-03-23T15:25:24;3.80;;;1.93;;
7398;SDS011;3740;50.700;7.184;2024-03-23T15:28:10;2.17;;;1.97;;
7398;SDS011;3740;50.700;7.184;2024-03-23T15:30:58;2.63;;;1.63;;
7398;SDS011;3740;50.700;7.184;2024-03-23T15:33:44;2.40;;;1.37;;
7398;SDS011;3740;50.700;7.184;2024-03-23T15:36:30;2.17;;;1.30;;
7398;SDS011;3740;50.700;7.184;2024-03-23T15:39:19;2.50;;;1.17;;
7398;SDS011;3740;50.700;7.184;2024-03-23T15:42:05;2.23;;;1.00;;
7398;SDS011;3740;50.700;7.184;2024-03-23T15:44:52;1.80;;;0.93;;
7398;SDS011;3740;50.700;7.184;2024-03-23T15:47:38;1.53;;;1.30;;
7398;SDS011;3740;50.700;7.184;2024-03-23T15:50:24;1.97;;;1.10;;
7398;SDS011;3740;50.700;7.184;2024-03-23T15:53:09;2.23;;;1.07;;
7398;SDS011;3740;50.700;7.184;2024-03-23T15:55:56;2.03;;;1.40;;
7398;SDS011;3740;50.700;7.184;2024-03-23T15:58:46;1.87;;;1.30;;
7398;SDS011;3740;50.700;7.184;2024-03-23T16:01:35;1.80;;;1.10;;
7398;SDS011;3740;50.700;7.184;2024-03-23T16:04:20;2.90;;;1.63;;
7398;SDS011;3740;50.700;7.184;2024-03-23T16:07:06;1.80;;;1.30;;
7398;SDS011;3740;50.700;7.184;2024-03-23T16:09:52;1.97;;;1.13;;
7398;SDS011;3740;50.700;7.184;2024-03-23T16:12:38;1.30;;;1.17;;
7398;SDS011;3740;50.700;7.184;2024-03-23T16:15:24;2.20;;;1.40;;
7398;SDS011;3740;50.700;7.184;2024-03-23T16:18:10;1.40;;;1.30;;
7398;SDS011;3740;50.700;7.184;2024-03-23T16:20:58;1.97;;;1.13;;
7398;SDS011;3740;50.700;7.184;2024-03-23T16:23:51;1.27;;;0.70;;
7398;SDS011;3740;50.700;7.184;2024-03-23T16:26:37;1.67;;;1.40;;
7398;SDS011;3740;50.700;7.184;2024-03-23T16:29:23;2.73;;;1.10;;
7398;SDS011;3740;50.700;7.184;2024-03-23T16:32:08;2.10;;;1.50;;
7398;SDS011;3740;50.700;7.184;2024-03-23T16:34:54;1.83;;;1.27;;
7398;SDS011;3740;50.700;7.184;2024-03-23T16:37:40;1.83;;;1.40;;
7398;SDS011;3740;50.700;7.184;2024-03-23T16:40:26;2.87;;;1.63;;
7398;SDS011;3740;50.700;7.184;2024-03-23T16:43:12;2.97;;;1.70;;
7398;SDS011;3740;50.700;7.184;2024-03-23T16:45:59;3.63;;;1.60;;
7398;SDS011;3740;50.700;7.184;2024-03-23T16:48:49;3.03;;;1.70;;
7398;SDS011;3740;50.700;7.184;2024-03-23T16:51:35;3.70;;;1.60;;
7398;SDS011;3740;50.700;7.184;2024-03-23T16:54:21;1.60;;;1.00;;
7398;SDS011;3740;50.700;7.184;2024-03-23T16:57:07;1.90;;;1.20;;
7398;SDS011;3740;50.700;7.184;2024-03-23T16:59:52;1.33;;;1.23;;
7398;SDS011;3740;50.700;7.184;2024-03-23T17:02:38;3.73;;;2.30;;
7398;SDS011;3740;50.700;7.184;2024-03-23T17:05:24;1.97;;;1.77;;
7398;SDS011;3740;50.700;7.184;2024-03-23T17:08:12;2.00;;;1.57;;
7398;SDS011;3740;50.700;7.184;2024-03-23T17:10:59;1.53;;;1.43;;
7398;SDS011;3740;50.700;7.184;2024-03-23T17:13:46;2.17;;;1.97;;
7398;SDS011;3740;50.700;7.184;2024-03-23T17:16:37;1.87;;;1.73;;
7398;SDS011;3740;50.700;7.184;2024-03-23T17:19:23;1.70;;;1.60;;
7398;SDS011;3740;50.700;7.184;2024-03-23T17:22:12;2.83;;;2.10;;
7398;SDS011;3740;50.700;7.184;2024-03-23T17:24:58;3.87;;;2.20;;
7398;SDS011;3740;50.700;7.184;2024-03-23T17:27:44;2.37;;;1.70;;
7398;SDS011;3740;50.700;7.184;2024-03-23T17:30:29;2.40;;;2.20;;
7398;SDS011;3740;50.700;7.184;2024-03-23T17:33:16;1.80;;;1.70;;
7398;SDS011;3740;50.700;7.184;2024-03-23T17:36:03;1.93;;;1.60;;
7398;SDS011;3740;50.700;7.184;2024-03-23T17:38:49;2.43;;;1.83;;
7398;SDS011;3740;50.700;7.184;2024-03-23T17:41:35;1.53;;;1.43;;
7398;SDS011;3740;50.700;7.184;2024-03-23T17:44:20;2.10;;;1.23;;
7398;SDS011;3740;50.700;7.184;2024-03-23T17:47:06;1.60;;;1.47;;
7398;SDS011;3740;50.700;7.184;2024-03-23T17:49:52;1.80;;;1.60;;
7398;SDS011;3740;50.700;7.184;2024-03-23T17:52:38;1.67;;;1.50;;
7398;SDS011;3740;50.700;7.184;2024-03-23T17:55:28;1.53;;;1.43;;
7398;SDS011;3740;50.700;7.184;2024-03-23T17:58:14;2.27;;;1.60;;
7398;SDS011;3740;50.700;7.184;2024-03-23T18:01:05;2.30;;;2.20;;
7398;SDS011;3740;50.700;7.184;2024-03-23T18:03:54;2.63;;;2.43;;
7398;SDS011;3740;50.700;7.184;2024-03-23T18:06:40;3.90;;;2.60;;
7398;SDS011;3740;50.700;7.184;2024-03-23T18:09:26;2.40;;;2.10;;